Time;durP1;ratioP1;P1;durP2;ratioP2;P2;SDS_P1;SDS_P2;PMS_P1;PMS_P2;Temp;Humidity;BMP_temperature;BMP_pressure;BME280_temperature;BME280_humidity;BME280_pressure;Samples;Min_cycle;Max_cycle;Signal;HPM_P1;HPM_P2
2021/06/01 00:00:00;;;;;;;8.02;3.28;;;;;;;;;;346577;28;1086;-62
2021/06/01 00:00:13;;;;;;;8.13;3.33;;;;;;;;;;346541;28;1133;-62
2021/06/01 00:00:25;;;;;;;6.95;3.28;;;;;;;;;;346575;28;1217;-68
2021/06/01 00:00:37;;;;;;;7.47;3.22;;;;;;;;;;346393;28;1054;-64
2021/06/01 00:00:51;;;;;;;7.07;3.28;;;;;;;;;;346888;28;1046;-66
2021/06/01 00:01:03;;;;;;;7.13;3.30;;;;;;;;;;346039;28;16198;-66
2021/06/01 00:01:16;;;;;;;9.15;3.63;;;;;;;;;;346681;28;1274;-63
2021/06/01 00:01:29;;;;;;;7.63;3.60;;;;;;;;;;347841;28;1556;-63
2021/06/01 00:01:43;;;;;;;7.28;3.50;;;;;;;;;;347814;28;1089;-63
2021/06/01 00:01:55;;;;;;;7.03;3.38;;;;;;;;;;345937;28;16684;-63
2021/06/01 00:02:08;;;;;;;7.57;3.22;;;;;;;;;;346489;28;1543;-68
2021/06/01 00:02:20;;;;;;;7.55;3.25;;;;;;;;;;346631;28;1090;-69
2021/06/01 00:02:32;;;;;;;6.88;3.15;;;;;;;;;;346459;28;1156;-68
2021/06/01 00:02:44;;;;;;;6.15;3.10;;;;;;;;;;346235;28;1184;-67
2021/06/01 00:02:57;;;;;;;6.15;2.95;;;;;;;;;;346641;28;1286;-63
2021/06/01 00:03:09;;;;;;;6.82;3.10;;;;;;;;;;347876;28;1100;-64
2021/06/01 00:03:21;;;;;;;8.13;3.13;;;;;;;;;;347811;28;1061;-64
2021/06/01 00:03:33;;;;;;;9.43;3.30;;;;;;;;;;347117;28;1921;-65
2021/06/01 00:03:45;;;;;;;10.05;3.58;;;;;;;;;;347516;28;1134;-68
2021/06/01 00:03:57;;;;;;;7.97;3.42;;;;;;;;;;346578;28;1098;-65
2021/06/01 00:04:11;;;;;;;6.30;3.20;;;;;;;;;;347277;28;1176;-66
2021/06/01 00:04:23;;;;;;;5.07;3.05;;;;;;;;;;347405;28;16025;-65
2021/06/01 00:04:35;;;;;;;5.53;3.20;;;;;;;;;;347804;28;1345;-63
2021/06/01 00:04:47;;;;;;;6.22;3.47;;;;;;;;;;347728;28;1216;-62
2021/06/01 00:04:59;;;;;;;6.50;3.50;;;;;;;;;;347967;28;1172;-65
2021/06/01 00:05:12;;;;;;;6.95;3.55;;;;;;;;;;347972;28;1156;-63
2021/06/01 00:05:24;;;;;;;8.05;3.42;;;;;;;;;;347802;28;1116;-68
2021/06/01 00:05:39;;;;;;;7.95;3.38;;;;;;;;;;346459;28;39731;-64
2021/06/01 00:05:51;;;;;;;7.53;3.45;;;;;;;;;;346568;28;1131;-65
2021/06/01 00:06:05;;;;;;;7.12;3.68;;;;;;;;;;346010;28;16664;-68
2021/06/01 00:06:18;;;;;;;6.47;3.42;;;;;;;;;;346539;28;1913;-69
2021/06/01 00:06:30;;;;;;;5.90;3.42;;;;;;;;;;346986;28;1066;-67
2021/06/01 00:06:43;;;;;;;5.32;3.53;;;;;;;;;;347905;28;1044;-67
2021/06/01 00:06:55;;;;;;;6.30;3.50;;;;;;;;;;346527;28;1937;-69
2021/06/01 00:07:07;;;;;;;5.93;3.58;;;;;;;;;;346467;28;1117;-67
2021/06/01 00:07:19;;;;;;;7.55;3.47;;;;;;;;;;346834;28;1780;-68
2021/06/01 00:07:31;;;;;;;8.35;3.35;;;;;;;;;;346520;28;995;-69
2021/06/01 00:07:43;;;;;;;8.34;3.38;;;;;;;;;;346489;28;1031;-67
2021/06/01 00:07:56;;;;;;;8.52;3.40;;;;;;;;;;346250;28;1248;-67
2021/06/01 00:08:08;;;;;;;7.82;3.50;;;;;;;;;;346813;28;1299;-63
2021/06/01 00:08:22;;;;;;;6.82;3.42;;;;;;;;;;347699;28;1092;-68
2021/06/01 00:08:34;;;;;;;9.05;3.55;;;;;;;;;;347500;28;1169;-67
2021/06/01 00:08:46;;;;;;;10.10;3.65;;;;;;;;;;347739;28;1079;-63
2021/06/01 00:09:00;;;;;;;10.12;3.50;;;;;;;;;;346864;28;2041;-68
2021/06/01 00:09:16;;;;;;;8.02;3.22;;;;;;;;;;346802;28;1113;-69
2021/06/01 00:09:28;;;;;;;8.00;3.30;;;;;;;;;;344819;28;63744;-68
2021/06/01 00:09:41;;;;;;;8.43;3.40;;;;;;;;;;346116;28;1129;-62
2021/06/01 00:09:53;;;;;;;9.15;3.30;;;;;;;;;;347431;28;1462;-68
2021/06/01 00:10:06;;;;;;;7.18;3.20;;;;;;;;;;346507;28;1057;-63
2021/06/01 00:10:18;;;;;;;6.28;3.28;;;;;;;;;;346235;28;1200;-69
2021/06/01 00:10:30;;;;;;;9.05;3.30;;;;;;;;;;346400;28;1102;-62
2021/06/01 00:10:43;;;;;;;9.63;3.30;;;;;;;;;;346431;28;1121;-64
2021/06/01 00:10:55;;;;;;;7.88;3.20;;;;;;;;;;346181;28;1106;-67
2021/06/01 00:11:08;;;;;;;6.78;3.25;;;;;;;;;;346343;28;1228;-66
2021/06/01 00:11:20;;;;;;;8.70;3.40;;;;;;;;;;346314;28;1050;-68
2021/06/01 00:11:32;;;;;;;8.65;3.47;;;;;;;;;;347085;28;1306;-67
2021/06/01 00:11:45;;;;;;;6.53;3.28;;;;;;;;;;347614;28;983;-63
2021/06/01 00:11:57;;;;;;;6.28;3.13;;;;;;;;;;347700;28;1110;-62
2021/06/01 00:12:09;;;;;;;6.38;3.15;;;;;;;;;;347778;28;1181;-69
2021/06/01 00:12:22;;;;;;;5.75;2.90;;;;;;;;;;346690;28;1068;-62
2021/06/01 00:12:34;;;;;;;5.68;2.90;;;;;;;;;;346204;28;1870;-62
2021/06/01 00:12:46;;;;;;;8.55;3.20;;;;;;;;;;346131;28;1091;-64
2021/06/01 00:12:59;;;;;;;8.70;3.05;;;;;;;;;;346241;28;1154;-66
2021/06/01 00:13:11;;;;;;;8.20;2.90;;;;;;;;;;346675;28;1373;-67
2021/06/01 00:13:23;;;;;;;6.95;2.90;;;;;;;;;;347666;28;1177;-68
2021/06/01 00:13:36;;;;;;;7.03;3.00;;;;;;;;;;346978;28;1973;-64
2021/06/01 00:13:48;;;;;;;8.25;3.00;;;;;;;;;;346409;28;1066;-67
2021/06/01 00:14:00;;;;;;;7.70;2.88;;;;;;;;;;347627;28;1129;-63
2021/06/01 00:14:13;;;;;;;7.68;3.00;;;;;;;;;;346377;28;1140;-69
2021/06/01 00:14:25;;;;;;;5.86;3.12;;;;;;;;;;346257;28;995;-69
2021/06/01 00:14:38;;;;;;;4.85;3.00;;;;;;;;;;346461;28;1161;-68
2021/06/01 00:14:50;;;;;;;6.00;3.10;;;;;;;;;;347785;28;1290;-66
2021/06/01 00:15:03;;;;;;;6.95;3.10;;;;;;;;;;347861;28;1186;-65
2021/06/01 00:15:15;;;;;;;7.60;3.03;;;;;;;;;;347379;28;17105;-70
2021/06/01 00:15:27;;;;;;;7.00;3.00;;;;;;;;;;347823;28;1917;-71
2021/06/01 00:15:40;;;;;;;5.07;3.05;;;;;;;;;;347442;28;1127;-68
2021/06/01 00:15:52;;;;;;;4.85;3.10;;;;;;;;;;346354;28;1049;-63
2021/06/01 00:16:06;;;;;;;5.40;3.25;;;;;;;;;;346181;28;1160;-67
2021/06/01 00:16:18;;;;;;;5.68;3.20;;;;;;;;;;346477;28;1989;-69
2021/06/01 00:16:31;;;;;;;7.45;3.22;;;;;;;;;;346090;28;1045;-69
2021/06/01 00:16:43;;;;;;;9.68;3.10;;;;;;;;;;345030;28;1038;-63
2021/06/01 00:16:56;;;;;;;10.50;3.15;;;;;;;;;;346277;28;1291;-64
2021/06/01 00:17:08;;;;;;;8.32;2.97;;;;;;;;;;346243;28;1181;-62
2021/06/01 00:17:20;;;;;;;7.38;3.17;;;;;;;;;;346218;28;1002;-62
2021/06/01 00:17:32;;;;;;;7.55;3.40;;;;;;;;;;346316;28;1953;-71
2021/06/01 00:17:44;;;;;;;9.05;3.38;;;;;;;;;;347426;28;1150;-62
2021/06/01 00:17:56;;;;;;;8.43;3.03;;;;;;;;;;346948;28;2028;-62
2021/06/01 00:18:08;;;;;;;6.88;3.00;;;;;;;;;;346372;28;1820;-69
2021/06/01 00:18:20;;;;;;;6.72;3.00;;;;;;;;;;346392;28;1911;-62
2021/06/01 00:18:33;;;;;;;6.70;3.05;;;;;;;;;;347729;28;1187;-68
2021/06/01 00:18:45;;;;;;;6.32;3.00;;;;;;;;;;346810;28;1220;-63
2021/06/01 00:18:57;;;;;;;5.75;3.00;;;;;;;;;;346394;28;1945;-67
2021/06/01 00:19:10;;;;;;;4.70;2.80;;;;;;;;;;346545;28;1183;-68
2021/06/01 00:19:22;;;;;;;6.43;2.90;;;;;;;;;;346555;28;1887;-62
2021/06/01 00:19:34;;;;;;;6.34;2.96;;;;;;;;;;346553;28;1058;-69
2021/06/01 00:19:46;;;;;;;6.93;3.13;;;;;;;;;;346512;28;1059;-69
2021/06/01 00:19:58;;;;;;;6.28;3.13;;;;;;;;;;346869;28;1090;-63
2021/06/01 00:20:11;;;;;;;5.65;3.10;;;;;;;;;;347809;28;1248;-63
2021/06/01 00:20:23;;;;;;;5.30;3.03;;;;;;;;;;347877;28;1268;-69
2021/06/01 00:20:35;;;;;;;6.22;2.90;;;;;;;;;;347740;28;1065;-67
2021/06/01 00:20:47;;;;;;;6.85;2.80;;;;;;;;;;347831;28;1030;-62
2021/06/01 00:20:59;;;;;;;6.65;2.97;;;;;;;;;;347859;28;1090;-68
2021/06/01 00:21:11;;;;;;;6.25;2.80;;;;;;;;;;346282;28;1034;-68
2021/06/01 00:21:24;;;;;;;5.10;2.90;;;;;;;;;;346602;28;1297;-69
2021/06/01 00:21:37;;;;;;;5.05;2.85;;;;;;;;;;346349;28;2088;-66
2021/06/01 00:21:50;;;;;;;5.43;3.00;;;;;;;;;;346619;28;1058;-69
2021/06/01 00:22:03;;;;;;;6.70;2.83;;;;;;;;;;345826;28;17870;-70
2021/06/01 00:22:15;;;;;;;7.15;2.90;;;;;;;;;;346514;28;990;-64
2021/06/01 00:22:27;;;;;;;7.15;2.88;;;;;;;;;;346417;28;1063;-69
2021/06/01 00:22:39;;;;;;;6.90;3.10;;;;;;;;;;346435;28;1054;-65
2021/06/01 00:22:51;;;;;;;8.93;3.17;;;;;;;;;;346559;28;1363;-63
2021/06/01 00:23:03;;;;;;;9.30;3.03;;;;;;;;;;346478;28;982;-63
2021/06/01 00:23:16;;;;;;;6.82;2.95;;;;;;;;;;346657;28;1050;-63
2021/06/01 00:23:28;;;;;;;4.70;2.90;;;;;;;;;;347440;28;1255;-69
2021/06/01 00:23:40;;;;;;;6.10;3.00;;;;;;;;;;347645;28;1126;-63
2021/06/01 00:23:54;;;;;;;6.22;2.90;;;;;;;;;;346507;28;1069;-65
2021/06/01 00:24:06;;;;;;;5.75;2.95;;;;;;;;;;345986;28;17841;-70
2021/06/01 00:24:18;;;;;;;6.20;2.95;;;;;;;;;;346718;28;1961;-65
2021/06/01 00:24:31;;;;;;;6.93;3.00;;;;;;;;;;346982;28;1106;-63
2021/06/01 00:24:43;;;;;;;7.47;3.13;;;;;;;;;;347629;28;1196;-69
2021/06/01 00:24:55;;;;;;;6.25;3.05;;;;;;;;;;346117;28;1067;-70
2021/06/01 00:25:07;;;;;;;5.90;2.95;;;;;;;;;;346783;28;1216;-65
2021/06/01 00:25:19;;;;;;;6.25;2.92;;;;;;;;;;347403;28;1039;-63
2021/06/01 00:25:31;;;;;;;5.70;2.80;;;;;;;;;;346426;28;1090;-63
2021/06/01 00:25:43;;;;;;;3.85;2.75;;;;;;;;;;346494;28;1280;-69
2021/06/01 00:25:59;;;;;;;4.53;2.75;;;;;;;;;;344205;28;63842;-70
2021/06/01 00:26:11;;;;;;;6.47;2.78;;;;;;;;;;346201;28;1509;-70
2021/06/01 00:26:24;;;;;;;6.78;3.17;;;;;;;;;;347145;28;1217;-67
2021/06/01 00:26:37;;;;;;;5.95;3.20;;;;;;;;;;347898;28;1168;-69
2021/06/01 00:26:49;;;;;;;5.47;3.13;;;;;;;;;;346611;28;17281;-63
2021/06/01 00:27:02;;;;;;;4.88;3.00;;;;;;;;;;347863;28;979;-63
2021/06/01 00:27:14;;;;;;;5.53;2.97;;;;;;;;;;347851;28;1125;-63
2021/06/01 00:27:26;;;;;;;5.63;2.95;;;;;;;;;;348110;28;1045;-66
2021/06/01 00:27:38;;;;;;;6.90;2.75;;;;;;;;;;347404;28;1141;-63
2021/06/01 00:27:50;;;;;;;6.93;2.78;;;;;;;;;;347770;28;1246;-64
2021/06/01 00:28:03;;;;;;;6.30;2.78;;;;;;;;;;347830;28;1201;-69
2021/06/01 00:28:15;;;;;;;6.65;2.90;;;;;;;;;;347940;28;1094;-70
2021/06/01 00:28:27;;;;;;;5.60;2.88;;;;;;;;;;347822;28;1285;-69
2021/06/01 00:28:43;;;;;;;4.78;2.80;;;;;;;;;;347649;28;2000;-64
2021/06/01 00:28:55;;;;;;;5.43;2.97;;;;;;;;;;346394;28;40129;-63
2021/06/01 00:29:07;;;;;;;6.07;3.00;;;;;;;;;;346369;28;998;-63
2021/06/01 00:29:20;;;;;;;7.55;3.10;;;;;;;;;;347515;28;1081;-69
2021/06/01 00:29:33;;;;;;;6.90;3.15;;;;;;;;;;347758;28;1093;-65
2021/06/01 00:29:45;;;;;;;5.90;3.10;;;;;;;;;;347080;28;1823;-63
2021/06/01 00:29:57;;;;;;;4.95;3.00;;;;;;;;;;346565;28;1828;-63
2021/06/01 00:30:09;;;;;;;5.75;2.88;;;;;;;;;;347482;28;1274;-63
2021/06/01 00:30:22;;;;;;;5.93;2.80;;;;;;;;;;346641;28;999;-64
2021/06/01 00:30:34;;;;;;;6.03;2.88;;;;;;;;;;346430;28;1274;-63
2021/06/01 00:30:46;;;;;;;7.22;3.08;;;;;;;;;;346696;28;1094;-65
2021/06/01 00:30:58;;;;;;;7.15;3.00;;;;;;;;;;346493;28;1077;-64
2021/06/01 00:31:11;;;;;;;5.55;3.00;;;;;;;;;;346380;28;1267;-63
2021/06/01 00:31:24;;;;;;;4.88;2.83;;;;;;;;;;346113;28;1197;-63
2021/06/01 00:31:36;;;;;;;5.13;2.85;;;;;;;;;;346341;28;1109;-66
2021/06/01 00:31:48;;;;;;;5.38;2.70;;;;;;;;;;346324;28;1177;-63
2021/06/01 00:32:00;;;;;;;5.97;2.80;;;;;;;;;;346243;28;1058;-64
2021/06/01 00:32:13;;;;;;;7.03;2.90;;;;;;;;;;346201;28;1090;-64
2021/06/01 00:32:25;;;;;;;6.80;2.80;;;;;;;;;;346191;28;1309;-64
2021/06/01 00:32:37;;;;;;;6.13;2.65;;;;;;;;;;346189;28;1055;-63
2021/06/01 00:32:50;;;;;;;5.40;2.58;;;;;;;;;;346170;28;1081;-64
2021/06/01 00:33:03;;;;;;;5.22;2.58;;;;;;;;;;346138;28;1039;-64
2021/06/01 00:33:15;;;;;;;4.93;2.63;;;;;;;;;;346191;28;1978;-64
2021/06/01 00:33:28;;;;;;;4.57;2.58;;;;;;;;;;346425;28;1099;-63
2021/06/01 00:33:40;;;;;;;5.00;2.70;;;;;;;;;;347494;28;1246;-67
2021/06/01 00:33:52;;;;;;;5.88;2.95;;;;;;;;;;346572;28;1085;-65
2021/06/01 00:34:05;;;;;;;6.00;2.90;;;;;;;;;;346287;28;1853;-64
2021/06/01 00:34:17;;;;;;;5.60;2.90;;;;;;;;;;346629;28;987;-64
2021/06/01 00:34:29;;;;;;;4.93;2.70;;;;;;;;;;347747;28;1142;-64
2021/06/01 00:34:41;;;;;;;5.50;2.70;;;;;;;;;;347738;28;1074;-64
2021/06/01 00:34:53;;;;;;;5.00;2.90;;;;;;;;;;347792;28;1228;-64
2021/06/01 00:35:06;;;;;;;5.88;2.88;;;;;;;;;;347690;28;1167;-65
2021/06/01 00:35:18;;;;;;;5.38;2.80;;;;;;;;;;347546;28;1217;-63
2021/06/01 00:35:33;;;;;;;5.10;2.88;;;;;;;;;;347711;28;1061;-63
2021/06/01 00:35:46;;;;;;;4.85;2.90;;;;;;;;;;346343;28;40378;-63
2021/06/01 00:35:58;;;;;;;5.45;2.83;;;;;;;;;;347127;28;1973;-63
2021/06/01 00:36:10;;;;;;;5.60;2.95;;;;;;;;;;346947;28;987;-65
2021/06/01 00:36:22;;;;;;;4.20;2.70;;;;;;;;;;346597;28;1105;-66
2021/06/01 00:36:35;;;;;;;4.03;2.60;;;;;;;;;;347882;28;975;-64
2021/06/01 00:36:47;;;;;;;5.97;2.70;;;;;;;;;;348014;28;1110;-64
2021/06/01 00:37:00;;;;;;;7.13;2.75;;;;;;;;;;346972;28;1109;-65
2021/06/01 00:37:12;;;;;;;6.72;2.67;;;;;;;;;;347601;28;2017;-67
2021/06/01 00:37:24;;;;;;;6.00;2.70;;;;;;;;;;347634;28;986;-66
2021/06/01 00:37:36;;;;;;;5.90;2.80;;;;;;;;;;346371;28;1206;-65
2021/06/01 00:37:48;;;;;;;5.15;2.75;;;;;;;;;;346295;28;1061;-65
2021/06/01 00:38:01;;;;;;;5.78;2.80;;;;;;;;;;345707;28;1176;-67
2021/06/01 00:38:13;;;;;;;7.07;2.88;;;;;;;;;;344803;28;1067;-64
2021/06/01 00:38:26;;;;;;;7.80;2.83;;;;;;;;;;344947;28;1173;-64
2021/06/01 00:38:41;;;;;;;8.40;2.97;;;;;;;;;;343196;28;63102;-65
2021/06/01 00:38:53;;;;;;;9.23;3.10;;;;;;;;;;344436;28;1936;-63
2021/06/01 00:39:05;;;;;;;7.22;2.90;;;;;;;;;;346171;28;1157;-64
2021/06/01 00:39:18;;;;;;;7.15;2.85;;;;;;;;;;344957;28;1157;-64
2021/06/01 00:39:30;;;;;;;6.10;2.70;;;;;;;;;;345795;28;1094;-65
2021/06/01 00:39:42;;;;;;;5.90;2.80;;;;;;;;;;346170;28;1030;-67
2021/06/01 00:39:54;;;;;;;5.68;2.80;;;;;;;;;;347617;28;1003;-65
2021/06/01 00:40:06;;;;;;;6.75;2.70;;;;;;;;;;346209;28;1101;-68
2021/06/01 00:40:18;;;;;;;6.03;2.60;;;;;;;;;;346340;28;1206;-63
2021/06/01 00:40:31;;;;;;;4.63;2.47;;;;;;;;;;346586;28;1880;-63
2021/06/01 00:40:43;;;;;;;4.57;2.50;;;;;;;;;;346291;28;1983;-63
2021/06/01 00:40:56;;;;;;;4.88;2.72;;;;;;;;;;346061;28;1211;-65
2021/06/01 00:41:08;;;;;;;5.22;2.72;;;;;;;;;;346129;28;1320;-62
2021/06/01 00:41:21;;;;;;;5.90;2.63;;;;;;;;;;345340;28;1057;-64
2021/06/01 00:41:33;;;;;;;6.38;2.65;;;;;;;;;;345886;28;2012;-65
2021/06/01 00:41:45;;;;;;;6.13;2.50;;;;;;;;;;346821;28;2025;-64
2021/06/01 00:41:57;;;;;;;6.88;2.60;;;;;;;;;;344920;28;1022;-64
2021/06/01 00:42:09;;;;;;;6.65;2.67;;;;;;;;;;345694;28;1042;-64
2021/06/01 00:42:21;;;;;;;4.47;2.58;;;;;;;;;;346304;28;1184;-64
2021/06/01 00:42:34;;;;;;;4.63;2.38;;;;;;;;;;345603;28;1239;-65
2021/06/01 00:42:46;;;;;;;4.88;2.35;;;;;;;;;;344940;28;1003;-64
2021/06/01 00:42:58;;;;;;;5.53;2.60;;;;;;;;;;344792;28;1278;-63
2021/06/01 00:43:11;;;;;;;5.90;2.83;;;;;;;;;;344762;28;1411;-65
2021/06/01 00:43:23;;;;;;;6.63;2.90;;;;;;;;;;345340;28;1082;-65
2021/06/01 00:43:35;;;;;;;5.55;2.78;;;;;;;;;;346149;28;1019;-68
2021/06/01 00:43:47;;;;;;;6.53;2.80;;;;;;;;;;347401;28;1202;-66
2021/06/01 00:44:00;;;;;;;6.88;2.70;;;;;;;;;;347667;28;1055;-64
2021/06/01 00:44:12;;;;;;;6.40;2.50;;;;;;;;;;347329;28;1914;-63
2021/06/01 00:44:24;;;;;;;6.30;2.60;;;;;;;;;;347078;28;1239;-63
2021/06/01 00:44:36;;;;;;;4.97;2.75;;;;;;;;;;346403;28;1095;-65
2021/06/01 00:44:50;;;;;;;6.10;2.70;;;;;;;;;;347034;28;1217;-64
2021/06/01 00:45:03;;;;;;;8.68;2.72;;;;;;;;;;345965;28;15950;-64
2021/06/01 00:45:18;;;;;;;9.36;2.68;;;;;;;;;;346229;28;1077;-63
2021/06/01 00:45:30;;;;;;;6.72;2.78;;;;;;;;;;343637;28;40128;-63
2021/06/01 00:45:43;;;;;;;5.80;2.58;;;;;;;;;;344968;28;1061;-64
2021/06/01 00:45:55;;;;;;;5.32;2.40;;;;;;;;;;344751;28;1251;-64
2021/06/01 00:46:08;;;;;;;4.60;2.45;;;;;;;;;;344899;28;1060;-64
2021/06/01 00:46:20;;;;;;;4.68;2.55;;;;;;;;;;344844;28;1091;-63
2021/06/01 00:46:32;;;;;;;5.25;2.55;;;;;;;;;;344879;28;1081;-63
2021/06/01 00:46:44;;;;;;;5.10;2.50;;;;;;;;;;345155;28;1090;-68
2021/06/01 00:46:56;;;;;;;4.57;2.58;;;;;;;;;;346310;28;2044;-68
2021/06/01 00:47:08;;;;;;;4.47;2.53;;;;;;;;;;346874;28;1227;-64
2021/06/01 00:47:20;;;;;;;5.05;2.50;;;;;;;;;;348059;28;1653;-63
2021/06/01 00:47:32;;;;;;;6.18;2.50;;;;;;;;;;346453;28;1090;-67
2021/06/01 00:47:45;;;;;;;5.70;2.35;;;;;;;;;;346432;28;1302;-64
2021/06/01 00:47:57;;;;;;;5.32;2.42;;;;;;;;;;346413;28;1107;-66
2021/06/01 00:48:09;;;;;;;6.25;2.50;;;;;;;;;;346423;28;1018;-64
2021/06/01 00:48:21;;;;;;;7.55;2.60;;;;;;;;;;346633;28;1081;-63
2021/06/01 00:48:33;;;;;;;7.70;2.60;;;;;;;;;;346513;28;1137;-65
2021/06/01 00:48:46;;;;;;;5.70;2.60;;;;;;;;;;346590;28;1082;-63
2021/06/01 00:48:58;;;;;;;5.15;2.50;;;;;;;;;;346521;28;1091;-69
2021/06/01 00:49:10;;;;;;;4.93;2.42;;;;;;;;;;346412;28;1893;-64
2021/06/01 00:49:22;;;;;;;4.47;2.40;;;;;;;;;;344951;28;1350;-65
2021/06/01 00:49:37;;;;;;;4.00;2.28;;;;;;;;;;346004;28;997;-63
2021/06/01 00:49:49;;;;;;;3.85;2.40;;;;;;;;;;345289;28;39726;-64
2021/06/01 00:50:01;;;;;;;6.28;2.63;;;;;;;;;;346451;28;1129;-64
2021/06/01 00:50:13;;;;;;;7.30;2.60;;;;;;;;;;346558;28;1068;-64
2021/06/01 00:50:26;;;;;;;7.25;2.67;;;;;;;;;;346595;28;1118;-66
2021/06/01 00:50:38;;;;;;;7.18;2.70;;;;;;;;;;344719;28;17296;-65
2021/06/01 00:50:51;;;;;;;5.05;2.45;;;;;;;;;;344946;28;1951;-63
2021/06/01 00:51:03;;;;;;;6.03;2.55;;;;;;;;;;345853;28;1523;-64
2021/06/01 00:51:15;;;;;;;6.75;2.70;;;;;;;;;;345084;28;1733;-63
2021/06/01 00:51:28;;;;;;;5.72;2.75;;;;;;;;;;347376;28;1394;-65
2021/06/01 00:51:40;;;;;;;5.38;2.60;;;;;;;;;;347839;28;1174;-64
2021/06/01 00:51:52;;;;;;;5.70;2.47;;;;;;;;;;347772;28;1022;-64
2021/06/01 00:52:05;;;;;;;8.00;2.60;;;;;;;;;;346443;28;1101;-64
2021/06/01 00:52:17;;;;;;;7.63;2.50;;;;;;;;;;346466;28;1061;-64
2021/06/01 00:52:29;;;;;;;5.80;2.60;;;;;;;;;;346533;28;1196;-65
2021/06/01 00:52:41;;;;;;;4.75;2.70;;;;;;;;;;346553;28;1078;-64
2021/06/01 00:52:54;;;;;;;5.97;2.50;;;;;;;;;;348129;28;1274;-64
2021/06/01 00:53:07;;;;;;;6.72;2.60;;;;;;;;;;346600;28;1049;-63
2021/06/01 00:53:20;;;;;;;6.63;2.70;;;;;;;;;;345989;28;16694;-65
2021/06/01 00:53:32;;;;;;;5.85;2.67;;;;;;;;;;346353;28;2029;-63
2021/06/01 00:53:44;;;;;;;6.50;2.55;;;;;;;;;;346530;28;1105;-64
2021/06/01 00:53:56;;;;;;;6.28;2.25;;;;;;;;;;346418;28;1132;-65
2021/06/01 00:54:09;;;;;;;5.82;2.20;;;;;;;;;;347327;28;1137;-65
2021/06/01 00:54:21;;;;;;;4.50;2.38;;;;;;;;;;347502;28;1185;-63
2021/06/01 00:54:33;;;;;;;6.28;2.60;;;;;;;;;;347702;28;1251;-68
2021/06/01 00:54:46;;;;;;;6.55;2.72;;;;;;;;;;346399;28;1062;-64
2021/06/01 00:54:58;;;;;;;5.45;2.50;;;;;;;;;;346520;28;1141;-63
2021/06/01 00:55:10;;;;;;;4.95;2.38;;;;;;;;;;346849;28;1239;-63
2021/06/01 00:55:23;;;;;;;4.60;2.30;;;;;;;;;;346813;28;1097;-63
2021/06/01 00:55:36;;;;;;;4.03;2.50;;;;;;;;;;346780;28;1914;-65
2021/06/01 00:55:48;;;;;;;4.28;2.47;;;;;;;;;;346696;28;1078;-64
2021/06/01 00:56:02;;;;;;;4.28;2.38;;;;;;;;;;347105;28;1085;-63
2021/06/01 00:56:14;;;;;;;6.57;2.45;;;;;;;;;;346114;28;17934;-66
2021/06/01 00:56:26;;;;;;;6.90;2.53;;;;;;;;;;346795;28;1300;-64
2021/06/01 00:56:40;;;;;;;6.00;2.42;;;;;;;;;;347919;28;1038;-65
2021/06/01 00:56:53;;;;;;;6.94;2.20;;;;;;;;;;347656;28;16118;-63
2021/06/01 00:57:06;;;;;;;6.75;2.30;;;;;;;;;;348208;28;1120;-63
2021/06/01 00:57:18;;;;;;;4.40;2.50;;;;;;;;;;347331;28;1101;-63
2021/06/01 00:57:30;;;;;;;4.70;2.60;;;;;;;;;;346726;28;1098;-68
2021/06/01 00:57:42;;;;;;;6.57;2.70;;;;;;;;;;346616;28;1180;-63
2021/06/01 00:57:57;;;;;;;6.72;2.47;;;;;;;;;;346224;28;41086;-63
2021/06/01 00:58:09;;;;;;;4.85;2.28;;;;;;;;;;347855;28;1029;-67
2021/06/01 00:58:21;;;;;;;4.47;2.47;;;;;;;;;;347252;28;927;-63
2021/06/01 00:58:34;;;;;;;6.22;2.55;;;;;;;;;;346355;28;1043;-62
2021/06/01 00:58:46;;;;;;;6.15;2.40;;;;;;;;;;346661;28;1995;-63
2021/06/01 00:58:58;;;;;;;6.04;2.38;;;;;;;;;;346627;28;1176;-64
2021/06/01 00:59:11;;;;;;;5.20;2.33;;;;;;;;;;346418;28;1090;-66
2021/06/01 00:59:23;;;;;;;4.38;2.42;;;;;;;;;;346481;28;1049;-63
2021/06/01 00:59:35;;;;;;;4.43;2.70;;;;;;;;;;346256;28;1220;-63
2021/06/01 00:59:47;;;;;;;4.13;2.60;;;;;;;;;;346607;28;1112;-67
2021/06/01 00:59:59;;;;;;;4.50;2.47;;;;;;;;;;346572;28;1069;-67
2021/06/01 01:01:21;;;;;;;3.95;2.40;;;;;;;;;;342333;28;63661;-64
2021/06/01 01:01:33;;;;;;;5.50;2.50;;;;;;;;;;343140;28;63852;-65
2021/06/01 01:01:45;;;;;;;6.47;2.50;;;;;;;;;;344960;28;1826;-64
2021/06/01 01:01:58;;;;;;;5.93;2.45;;;;;;;;;;343701;28;1864;-63
2021/06/01 01:02:10;;;;;;;4.85;2.28;;;;;;;;;;343616;28;1035;-63
2021/06/01 01:02:22;;;;;;;4.32;2.40;;;;;;;;;;343809;28;1937;-63
2021/06/01 01:02:34;;;;;;;3.85;2.33;;;;;;;;;;343824;28;1120;-64
2021/06/01 01:02:46;;;;;;;4.03;2.13;;;;;;;;;;343839;28;1137;-64
2021/06/01 01:02:59;;;;;;;5.30;2.10;;;;;;;;;;343919;28;1272;-64
2021/06/01 01:03:11;;;;;;;4.65;2.10;;;;;;;;;;345097;28;1334;-66
2021/06/01 01:03:23;;;;;;;4.95;2.28;;;;;;;;;;344113;28;1057;-64
2021/06/01 01:03:36;;;;;;;5.28;2.33;;;;;;;;;;343753;28;1278;-64
2021/06/01 01:03:50;;;;;;;6.03;2.50;;;;;;;;;;343880;28;1090;-63
2021/06/01 01:04:02;;;;;;;4.68;2.33;;;;;;;;;;343218;28;17255;-63
2021/06/01 01:04:14;;;;;;;4.70;2.25;;;;;;;;;;343888;28;1162;-65
2021/06/01 01:04:27;;;;;;;5.25;2.20;;;;;;;;;;343762;28;1232;-63
2021/06/01 01:04:40;;;;;;;7.03;2.30;;;;;;;;;;343430;28;1370;-63
2021/06/01 01:04:53;;;;;;;6.18;2.30;;;;;;;;;;343901;28;1288;-63
2021/06/01 01:05:10;;;;;;;5.20;2.30;;;;;;;;;;343628;28;1106;-64
2021/06/01 01:05:30;;;;;;;5.05;2.40;;;;;;;;;;342235;28;62414;-63
2021/06/01 01:05:47;;;;;;;4.53;2.40;;;;;;;;;;343334;28;63652;-66
2021/06/01 01:06:04;;;;;;;3.68;2.38;;;;;;;;;;342246;28;86912;-63
2021/06/01 01:06:39;;;;;;;4.03;2.53;;;;;;;;;;342979;28;62596;-63
2021/06/01 01:07:03;;;;;;;4.65;2.22;;;;;;;;;;342804;28;64322;-63
2021/06/01 01:07:18;;;;;;;3.92;2.20;;;;;;;;;;343138;28;64636;-64
2021/06/01 01:07:38;;;;;;;6.57;2.42;;;;;;;;;;342383;28;39667;-64
2021/06/01 01:08:04;;;;;;;6.47;2.50;;;;;;;;;;341509;28;63898;-65
2021/06/01 01:08:34;;;;;;;4.35;2.35;;;;;;;;;;341486;28;64356;-63
2021/06/01 01:08:54;;;;;;;6.90;2.58;;;;;;;;;;341554;28;63084;-64
2021/06/01 01:09:11;;;;;;;7.70;2.85;;;;;;;;;;342927;28;63366;-63
2021/06/01 01:09:24;;;;;;;6.53;2.65;;;;;;;;;;342907;28;64994;-66
2021/06/01 01:09:36;;;;;;;4.25;2.45;;;;;;;;;;344520;28;16888;-63
2021/06/01 01:09:49;;;;;;;3.92;2.47;;;;;;;;;;345145;28;1303;-64
2021/06/01 01:10:02;;;;;;;3.72;2.40;;;;;;;;;;345158;28;1108;-64
2021/06/01 01:10:15;;;;;;;4.70;2.15;;;;;;;;;;345132;28;1106;-64
2021/06/01 01:10:28;;;;;;;5.13;2.38;;;;;;;;;;345094;28;1114;-64
2021/06/01 01:10:40;;;;;;;4.18;2.53;;;;;;;;;;344619;28;1113;-63
2021/06/01 01:10:53;;;;;;;3.70;2.40;;;;;;;;;;345175;28;1125;-64
2021/06/01 01:11:12;;;;;;;3.97;2.38;;;;;;;;;;345116;28;1079;-64
2021/06/01 01:11:42;;;;;;;4.38;2.42;;;;;;;;;;343052;28;63595;-64
2021/06/01 01:12:10;;;;;;;4.53;2.53;;;;;;;;;;341890;28;62604;-63
2021/06/01 01:12:35;;;;;;;3.28;2.15;;;;;;;;;;341765;28;63251;-63
2021/06/01 01:12:50;;;;;;;5.43;2.45;;;;;;;;;;341474;28;64386;-64
2021/06/01 01:13:06;;;;;;;5.18;2.45;;;;;;;;;;342507;28;41418;-63
2021/06/01 01:13:19;;;;;;;5.15;2.50;;;;;;;;;;342903;28;64127;-63
2021/06/01 01:13:35;;;;;;;5.38;2.53;;;;;;;;;;345098;28;1062;-66
2021/06/01 01:13:55;;;;;;;4.30;2.58;;;;;;;;;;342391;28;86705;-63
2021/06/01 01:14:09;;;;;;;4.53;2.45;;;;;;;;;;343060;28;63725;-63
2021/06/01 01:14:38;;;;;;;5.55;2.60;;;;;;;;;;345025;28;1124;-65
2021/06/01 01:14:54;;;;;;;5.18;2.47;;;;;;;;;;341581;28;62205;-68
2021/06/01 01:15:06;;;;;;;6.75;2.60;;;;;;;;;;342507;28;41008;-64
2021/06/01 01:15:22;;;;;;;5.57;2.55;;;;;;;;;;343590;28;1066;-63
2021/06/01 01:15:35;;;;;;;3.72;2.47;;;;;;;;;;341617;28;63923;-65
2021/06/01 01:15:49;;;;;;;3.55;2.40;;;;;;;;;;343680;28;1094;-63
2021/06/01 01:16:05;;;;;;;4.75;2.30;;;;;;;;;;341562;28;62527;-63
2021/06/01 01:16:18;;;;;;;4.38;2.15;;;;;;;;;;342168;28;1146;-63
2021/06/01 01:16:31;;;;;;;3.08;2.10;;;;;;;;;;343718;28;1109;-64
2021/06/01 01:16:46;;;;;;;4.25;2.25;;;;;;;;;;342561;28;1077;-65
2021/06/01 01:17:03;;;;;;;6.55;2.50;;;;;;;;;;342386;28;64344;-65
2021/06/01 01:17:23;;;;;;;7.68;2.58;;;;;;;;;;342979;28;63009;-66
2021/06/01 01:17:37;;;;;;;6.70;2.58;;;;;;;;;;343010;28;64010;-63
2021/06/01 01:17:51;;;;;;;5.15;2.42;;;;;;;;;;343728;28;40701;-63
2021/06/01 01:18:07;;;;;;;4.43;2.20;;;;;;;;;;344508;28;17128;-63
2021/06/01 01:18:20;;;;;;;4.78;2.17;;;;;;;;;;343530;28;40128;-64
2021/06/01 01:18:33;;;;;;;4.68;2.20;;;;;;;;;;344262;28;16707;-63
2021/06/01 01:18:48;;;;;;;5.15;2.30;;;;;;;;;;344678;28;1207;-64
2021/06/01 01:19:05;;;;;;;5.03;2.40;;;;;;;;;;342321;28;40403;-63
2021/06/01 01:19:23;;;;;;;4.18;2.47;;;;;;;;;;341702;28;63844;-63
2021/06/01 01:19:43;;;;;;;5.32;2.40;;;;;;;;;;341779;28;63903;-65
2021/06/01 01:19:55;;;;;;;4.03;2.40;;;;;;;;;;342890;28;62936;-63
2021/06/01 01:20:10;;;;;;;3.42;2.50;;;;;;;;;;345069;28;1165;-65
2021/06/01 01:20:24;;;;;;;3.67;2.50;;;;;;;;;;344178;28;16972;-64
2021/06/01 01:20:40;;;;;;;3.92;2.30;;;;;;;;;;343889;28;40833;-66
2021/06/01 01:20:58;;;;;;;5.32;2.40;;;;;;;;;;341478;28;63794;-66
2021/06/01 01:21:31;;;;;;;5.15;2.50;;;;;;;;;;341486;28;62543;-65
2021/06/01 01:21:43;;;;;;;4.60;2.30;;;;;;;;;;342187;28;62576;-64
2021/06/01 01:21:55;;;;;;;5.20;2.40;;;;;;;;;;345098;28;1098;-63
2021/06/01 01:22:07;;;;;;;5.97;2.40;;;;;;;;;;345369;28;1010;-66
2021/06/01 01:22:20;;;;;;;5.70;2.45;;;;;;;;;;345299;28;1023;-63
2021/06/01 01:22:34;;;;;;;6.15;2.58;;;;;;;;;;345102;28;1085;-63